Pagrindinis puslapis
METAR-TAF:

METAR-TAF

Oro uostai :

Ørland, Norvegija

platuma: 63-42N, ilguma: 009-36E, Aukštis: 0 m

Dabartinis oras

Ataskaita buvo paskelbta 33 minutes, ne 03:20 UTC
Vėjas 8 kt iš Šiaurės
Temperatūra 10°C
Drėgmė 93%
Slėgis 1018 hPa
Matomumas 10 km arba daugiau
Su prošvaistėmis ne aukštis 1400 ft
lietus

METAR: ENOL 250320Z 01008KT 9999 -RA BKN014 10/09 Q1018

Laikas: 05:53 (03:53 UTC)

Prognozė

Prognozė galioja nuo 25 metu 00 UTC su 25 metu 24 UTC
Vėjas 10 kt iš Šiaurės
Matomumas 10 km arba daugiau
Mažai debesys ne aukštis 800 ft
Su prošvaistėmis ne aukštis 2500 ft
Laikinai
nuo 25 metu 00 UTC su 25 metu 12 UTC
Su prošvaistėmis ne aukštis 1400 ft

TAF: ENOL 2500/2524 36010KT 9999 FEW008 BKN025 TEMPO 2500/2512 BKN014

Orai ataskaitas ir orų prognozės (METAR, TAF).

turimą stotys yra geltonos ir raudonos taškus žemėlapyje.

Perkelti pele per norėdami pamatyti stoties vardą.

Tada spustelėkite, norėdami matyti oro stebėjimo ir prognozės.

Norėdami pakeisti žemėlapį: spustelėkite ant žalios mygtukų su juodo kryžiaus žemyn,; žalią mygtuką su brūkšneliu, jei norite nutolinti; arba žalių rodyklių gretimoms žemėlapius.


METAR-TAF: